Aviation Digital Data Service (ADDS)

Output produced by METARs form (1913 UTC 26 July 2014)
found at http://www.aviationweather.gov/adds/metars/
 
KGED 261907Z AUTO 16007KT 3SM +RA BR SCT015 BKN025 OVC070 23/21 A2999 RMK AO2 LTG DSNT SE RAB1856 P0003 T02280211